sensor_id;sensor_type;location;lat;lon;timestamp;temperature;humidity
3005;DHT22;1512;51.486;6.610;2022-12-04T00:02:11;2.30;99.90
3005;DHT22;1512;51.486;6.610;2022-12-04T00:06:39;2.20;99.90
3005;DHT22;1512;51.486;6.610;2022-12-04T00:11:08;2.30;99.90
3005;DHT22;1512;51.486;6.610;2022-12-04T00:15:17;2.30;99.90
3005;DHT22;1512;51.486;6.610;2022-12-04T00:19:27;2.30;99.90
3005;DHT22;1512;51.486;6.610;2022-12-04T00:23:37;2.20;99.90
3005;DHT22;1512;51.486;6.610;2022-12-04T00:27:45;2.20;99.90
3005;DHT22;1512;51.486;6.610;2022-12-04T00:31:54;2.30;99.90
3005;DHT22;1512;51.486;6.610;2022-12-04T00:36:05;2.30;99.90
3005;DHT22;1512;51.486;6.610;2022-12-04T00:40:14;2.20;99.90
3005;DHT22;1512;51.486;6.610;2022-12-04T00:44:23;2.30;99.90
3005;DHT22;1512;51.486;6.610;2022-12-04T00:48:32;2.30;99.90
3005;DHT22;1512;51.486;6.610;2022-12-04T00:52:40;2.30;99.90
3005;DHT22;1512;51.486;6.610;2022-12-04T00:56:49;2.30;99.90
3005;DHT22;1512;51.486;6.610;2022-12-04T01:01:03;2.30;99.90
3005;DHT22;1512;51.486;6.610;2022-12-04T01:05:13;2.30;99.90
3005;DHT22;1512;51.486;6.610;2022-12-04T01:09:41;2.20;99.90
3005;DHT22;1512;51.486;6.610;2022-12-04T01:13:50;2.20;99.90
3005;DHT22;1512;51.486;6.610;2022-12-04T01:17:59;2.20;99.90
3005;DHT22;1512;51.486;6.610;2022-12-04T01:22:07;2.20;99.90
3005;DHT22;1512;51.486;6.610;2022-12-04T01:26:16;2.20;99.90
3005;DHT22;1512;51.486;6.610;2022-12-04T01:30:25;2.30;99.90
3005;DHT22;1512;51.486;6.610;2022-12-04T01:34:33;2.20;99.90
3005;DHT22;1512;51.486;6.610;2022-12-04T01:38:43;2.30;99.90
3005;DHT22;1512;51.486;6.610;2022-12-04T01:42:52;2.30;99.90
3005;DHT22;1512;51.486;6.610;2022-12-04T01:47:01;2.40;99.90
3005;DHT22;1512;51.486;6.610;2022-12-04T01:51:18;2.40;99.90
3005;DHT22;1512;51.486;6.610;2022-12-04T01:55:29;2.40;99.90
3005;DHT22;1512;51.486;6.610;2022-12-04T01:59:52;2.30;99.90
3005;DHT22;1512;51.486;6.610;2022-12-04T02:04:02;2.20;99.90
3005;DHT22;1512;51.486;6.610;2022-12-04T02:08:11;2.20;99.90
3005;DHT22;1512;51.486;6.610;2022-12-04T02:12:35;2.20;99.90
3005;DHT22;1512;51.486;6.610;2022-12-04T02:16:53;2.20;99.90
3005;DHT22;1512;51.486;6.610;2022-12-04T02:21:06;2.20;99.90
3005;DHT22;1512;51.486;6.610;2022-12-04T02:34:17;2.30;99.90
3005;DHT22;1512;51.486;6.610;2022-12-04T02:38:36;2.20;99.90
3005;DHT22;1512;51.486;6.610;2022-12-04T02:47:23;2.20;99.90
3005;DHT22;1512;51.486;6.610;2022-12-04T02:51:33;2.30;99.90
3005;DHT22;1512;51.486;6.610;2022-12-04T02:55:52;2.20;99.90
3005;DHT22;1512;51.486;6.610;2022-12-04T03:00:03;2.20;99.90
3005;DHT22;1512;51.486;6.610;2022-12-04T03:04:15;2.20;99.90
3005;DHT22;1512;51.486;6.610;2022-12-04T03:08:32;2.20;99.90
3005;DHT22;1512;51.486;6.610;2022-12-04T03:16:57;2.30;99.90
3005;DHT22;1512;51.486;6.610;2022-12-04T03:21:11;2.30;99.90
3005;DHT22;1512;51.486;6.610;2022-12-04T03:25:22;2.40;99.90
3005;DHT22;1512;51.486;6.610;2022-12-04T03:29:49;2.40;99.90
3005;DHT22;1512;51.486;6.610;2022-12-04T03:33:58;2.30;99.90
3005;DHT22;1512;51.486;6.610;2022-12-04T03:47:11;2.30;99.90
3005;DHT22;1512;51.486;6.610;2022-12-04T03:51:21;2.30;99.90
3005;DHT22;1512;51.486;6.610;2022-12-04T03:55:46;2.30;99.90
3005;DHT22;1512;51.486;6.610;2022-12-04T04:00:07;2.20;99.90
3005;DHT22;1512;51.486;6.610;2022-12-04T04:04:17;2.30;99.90
3005;DHT22;1512;51.486;6.610;2022-12-04T04:08:28;2.30;99.90
3005;DHT22;1512;51.486;6.610;2022-12-04T04:12:43;2.30;99.90
3005;DHT22;1512;51.486;6.610;2022-12-04T04:16:54;2.30;99.90
3005;DHT22;1512;51.486;6.610;2022-12-04T04:21:24;2.30;99.90
3005;DHT22;1512;51.486;6.610;2022-12-04T04:25:52;2.30;99.90
3005;DHT22;1512;51.486;6.610;2022-12-04T04:30:02;2.30;99.90
3005;DHT22;1512;51.486;6.610;2022-12-04T04:34:17;2.30;99.90
3005;DHT22;1512;51.486;6.610;2022-12-04T04:38:38;2.20;99.90
3005;DHT22;1512;51.486;6.610;2022-12-04T04:47:30;2.10;99.90
3005;DHT22;1512;51.486;6.610;2022-12-04T04:51:37;2.20;99.90
3005;DHT22;1512;51.486;6.610;2022-12-04T04:55:47;2.20;99.90
3005;DHT22;1512;51.486;6.610;2022-12-04T04:59:56;2.20;99.90
3005;DHT22;1512;51.486;6.610;2022-12-04T05:04:05;2.20;99.90
3005;DHT22;1512;51.486;6.610;2022-12-04T05:08:14;2.20;99.90
3005;DHT22;1512;51.486;6.610;2022-12-04T05:12:23;2.30;99.90
3005;DHT22;1512;51.486;6.610;2022-12-04T05:16:32;2.30;99.90
3005;DHT22;1512;51.486;6.610;2022-12-04T05:20:42;2.30;99.90
3005;DHT22;1512;51.486;6.610;2022-12-04T05:24:51;2.30;99.90
3005;DHT22;1512;51.486;6.610;2022-12-04T05:28:59;2.40;99.90
3005;DHT22;1512;51.486;6.610;2022-12-04T05:33:09;2.20;99.90
3005;DHT22;1512;51.486;6.610;2022-12-04T05:37:19;2.20;99.90
3005;DHT22;1512;51.486;6.610;2022-12-04T05:41:27;2.20;99.90
3005;DHT22;1512;51.486;6.610;2022-12-04T05:45:37;2.20;99.90
3005;DHT22;1512;51.486;6.610;2022-12-04T05:49:46;2.20;99.90
3005;DHT22;1512;51.486;6.610;2022-12-04T05:53:54;2.10;99.90
3005;DHT22;1512;51.486;6.610;2022-12-04T05:58:03;2.10;99.90
3005;DHT22;1512;51.486;6.610;2022-12-04T06:02:12;2.10;99.90
3005;DHT22;1512;51.486;6.610;2022-12-04T06:06:23;2.10;99.90
3005;DHT22;1512;51.486;6.610;2022-12-04T06:10:32;2.10;99.90
3005;DHT22;1512;51.486;6.610;2022-12-04T06:14:40;2.10;99.90
3005;DHT22;1512;51.486;6.610;2022-12-04T06:18:54;2.10;99.90
3005;DHT22;1512;51.486;6.610;2022-12-04T06:23:03;2.10;99.90
3005;DHT22;1512;51.486;6.610;2022-12-04T06:27:11;2.10;99.90
3005;DHT22;1512;51.486;6.610;2022-12-04T06:31:41;2.10;99.90
3005;DHT22;1512;51.486;6.610;2022-12-04T06:36:13;2.10;99.90
3005;DHT22;1512;51.486;6.610;2022-12-04T06:40:22;2.10;99.90
3005;DHT22;1512;51.486;6.610;2022-12-04T06:44:30;2.10;99.90
3005;DHT22;1512;51.486;6.610;2022-12-04T06:48:40;2.10;99.90
3005;DHT22;1512;51.486;6.610;2022-12-04T06:52:49;2.10;99.90
3005;DHT22;1512;51.486;6.610;2022-12-04T06:56:57;2.10;99.90
3005;DHT22;1512;51.486;6.610;2022-12-04T07:01:26;2.10;99.90
3005;DHT22;1512;51.486;6.610;2022-12-04T07:05:35;2.20;99.90
3005;DHT22;1512;51.486;6.610;2022-12-04T07:09:44;2.10;99.90
3005;DHT22;1512;51.486;6.610;2022-12-04T07:13:54;2.10;99.90
3005;DHT22;1512;51.486;6.610;2022-12-04T07:18:03;2.20;99.90
3005;DHT22;1512;51.486;6.610;2022-12-04T07:22:12;2.40;99.90
3005;DHT22;1512;51.486;6.610;2022-12-04T07:26:21;2.30;99.90
3005;DHT22;1512;51.486;6.610;2022-12-04T07:30:30;2.30;99.90
3005;DHT22;1512;51.486;6.610;2022-12-04T07:34:39;2.30;99.90
3005;DHT22;1512;51.486;6.610;2022-12-04T07:38:49;2.20;99.90
3005;DHT22;1512;51.486;6.610;2022-12-04T07:42:57;2.20;99.90
3005;DHT22;1512;51.486;6.610;2022-12-04T07:47:06;2.20;99.90
3005;DHT22;1512;51.486;6.610;2022-12-04T07:51:18;2.20;99.90
3005;DHT22;1512;51.486;6.610;2022-12-04T07:55:26;2.20;99.90
3005;DHT22;1512;51.486;6.610;2022-12-04T07:59:35;2.20;99.90
3005;DHT22;1512;51.486;6.610;2022-12-04T08:03:45;2.20;99.90
3005;DHT22;1512;51.486;6.610;2022-12-04T08:08:15;2.20;99.90
3005;DHT22;1512;51.486;6.610;2022-12-04T08:12:23;2.20;99.90
3005;DHT22;1512;51.486;6.610;2022-12-04T08:16:32;2.20;99.90
3005;DHT22;1512;51.486;6.610;2022-12-04T08:20:41;2.20;99.90
3005;DHT22;1512;51.486;6.610;2022-12-04T08:24:49;2.20;99.90
3005;DHT22;1512;51.486;6.610;2022-12-04T08:28:59;2.30;99.90
3005;DHT22;1512;51.486;6.610;2022-12-04T08:33:08;2.30;99.90
3005;DHT22;1512;51.486;6.610;2022-12-04T08:37:36;2.30;99.90
3005;DHT22;1512;51.486;6.610;2022-12-04T08:41:45;2.30;99.90
3005;DHT22;1512;51.486;6.610;2022-12-04T08:45:57;2.30;99.90
3005;DHT22;1512;51.486;6.610;2022-12-04T08:50:06;2.30;99.90
3005;DHT22;1512;51.486;6.610;2022-12-04T08:54:15;2.30;99.90
3005;DHT22;1512;51.486;6.610;2022-12-04T08:58:24;2.40;99.90
3005;DHT22;1512;51.486;6.610;2022-12-04T09:02:32;2.40;99.90
3005;DHT22;1512;51.486;6.610;2022-12-04T09:06:41;2.30;99.90
3005;DHT22;1512;51.486;6.610;2022-12-04T09:11:10;2.30;99.90
3005;DHT22;1512;51.486;6.610;2022-12-04T09:15:19;2.30;99.90
3005;DHT22;1512;51.486;6.610;2022-12-04T09:19:28;2.40;99.90
3005;DHT22;1512;51.486;6.610;2022-12-04T09:23:39;2.40;99.90
3005;DHT22;1512;51.486;6.610;2022-12-04T09:27:48;2.40;99.90
3005;DHT22;1512;51.486;6.610;2022-12-04T09:31:56;2.40;99.90
3005;DHT22;1512;51.486;6.610;2022-12-04T09:36:05;2.40;99.90
3005;DHT22;1512;51.486;6.610;2022-12-04T09:40:28;2.50;99.90
3005;DHT22;1512;51.486;6.610;2022-12-04T09:48:51;2.40;99.90
3005;DHT22;1512;51.486;6.610;2022-12-04T09:53:28;2.50;99.90
3005;DHT22;1512;51.486;6.610;2022-12-04T09:57:43;2.50;99.90
3005;DHT22;1512;51.486;6.610;2022-12-04T10:02:02;2.50;99.90
3005;DHT22;1512;51.486;6.610;2022-12-04T10:06:24;2.60;99.90
3005;DHT22;1512;51.486;6.610;2022-12-04T10:10:44;2.60;99.90
3005;DHT22;1512;51.486;6.610;2022-12-04T10:19:09;2.70;99.90
3005;DHT22;1512;51.486;6.610;2022-12-04T10:28:01;2.70;99.90
3005;DHT22;1512;51.486;6.610;2022-12-04T10:32:20;2.60;99.90
3005;DHT22;1512;51.486;6.610;2022-12-04T10:36:31;2.70;99.90
3005;DHT22;1512;51.486;6.610;2022-12-04T10:40:45;2.70;99.90
3005;DHT22;1512;51.486;6.610;2022-12-04T10:45:14;2.70;99.90
3005;DHT22;1512;51.486;6.610;2022-12-04T10:49:28;2.70;99.90
3005;DHT22;1512;51.486;6.610;2022-12-04T10:53:37;2.70;99.90
3005;DHT22;1512;51.486;6.610;2022-12-04T10:57:46;2.70;99.90
3005;DHT22;1512;51.486;6.610;2022-12-04T11:06:13;2.80;99.90
3005;DHT22;1512;51.486;6.610;2022-12-04T11:14:39;2.80;99.90
3005;DHT22;1512;51.486;6.610;2022-12-04T11:18:50;2.80;99.90
3005;DHT22;1512;51.486;6.610;2022-12-04T11:22:59;2.80;99.90
3005;DHT22;1512;51.486;6.610;2022-12-04T11:27:18;2.80;99.90
3005;DHT22;1512;51.486;6.610;2022-12-04T11:31:26;2.80;99.90
3005;DHT22;1512;51.486;6.610;2022-12-04T11:35:35;2.80;99.90
3005;DHT22;1512;51.486;6.610;2022-12-04T11:39:44;2.90;99.90
3005;DHT22;1512;51.486;6.610;2022-12-04T11:43:54;2.90;99.90
3005;DHT22;1512;51.486;6.610;2022-12-04T11:48:14;2.90;99.90
3005;DHT22;1512;51.486;6.610;2022-12-04T11:52:31;2.90;99.90
3005;DHT22;1512;51.486;6.610;2022-12-04T11:56:42;2.90;99.90
3005;DHT22;1512;51.486;6.610;2022-12-04T12:01:15;2.90;99.90
3005;DHT22;1512;51.486;6.610;2022-12-04T12:05:41;2.90;99.90
3005;DHT22;1512;51.486;6.610;2022-12-04T12:14:44;2.90;99.90
3005;DHT22;1512;51.486;6.610;2022-12-04T12:19:06;2.90;99.90
3005;DHT22;1512;51.486;6.610;2022-12-04T12:27:49;2.90;99.90
3005;DHT22;1512;51.486;6.610;2022-12-04T12:36:30;2.90;99.90
3005;DHT22;1512;51.486;6.610;2022-12-04T12:40:46;2.90;99.90
3005;DHT22;1512;51.486;6.610;2022-12-04T12:45:00;2.90;99.90
3005;DHT22;1512;51.486;6.610;2022-12-04T12:49:14;3.00;99.90
3005;DHT22;1512;51.486;6.610;2022-12-04T12:53:26;3.00;99.90
3005;DHT22;1512;51.486;6.610;2022-12-04T12:57:36;2.90;99.90
3005;DHT22;1512;51.486;6.610;2022-12-04T13:02:06;3.00;99.90
3005;DHT22;1512;51.486;6.610;2022-12-04T13:06:20;3.00;99.90
3005;DHT22;1512;51.486;6.610;2022-12-04T13:10:41;3.00;99.90
3005;DHT22;1512;51.486;6.610;2022-12-04T13:14:50;3.10;99.90
3005;DHT22;1512;51.486;6.610;2022-12-04T13:23:37;3.10;99.90
3005;DHT22;1512;51.486;6.610;2022-12-04T13:28:13;3.10;99.90
3005;DHT22;1512;51.486;6.610;2022-12-04T13:41:26;3.20;99.90
3005;DHT22;1512;51.486;6.610;2022-12-04T13:45:37;3.20;99.90
3005;DHT22;1512;51.486;6.610;2022-12-04T13:49:46;3.20;99.90
3005;DHT22;1512;51.486;6.610;2022-12-04T13:58:28;3.10;99.90
3005;DHT22;1512;51.486;6.610;2022-12-04T14:02:57;3.10;99.90
3005;DHT22;1512;51.486;6.610;2022-12-04T14:07:18;3.10;99.90
3005;DHT22;1512;51.486;6.610;2022-12-04T14:11:48;3.10;99.90
3005;DHT22;1512;51.486;6.610;2022-12-04T14:16:05;3.10;99.90
3005;DHT22;1512;51.486;6.610;2022-12-04T14:20:23;3.10;99.90
3005;DHT22;1512;51.486;6.610;2022-12-04T14:24:36;3.10;99.90
3005;DHT22;1512;51.486;6.610;2022-12-04T14:28:45;3.10;99.90
3005;DHT22;1512;51.486;6.610;2022-12-04T14:33:16;3.10;99.90
3005;DHT22;1512;51.486;6.610;2022-12-04T14:37:52;3.20;99.90
3005;DHT22;1512;51.486;6.610;2022-12-04T14:46:50;3.30;99.90
3005;DHT22;1512;51.486;6.610;2022-12-04T14:50:50;3.30;99.90
3005;DHT22;1512;51.486;6.610;2022-12-04T14:59:52;3.20;99.90
3005;DHT22;1512;51.486;6.610;2022-12-04T15:08:49;3.20;99.90
3005;DHT22;1512;51.486;6.610;2022-12-04T15:12:58;3.20;99.90
3005;DHT22;1512;51.486;6.610;2022-12-04T15:17:11;3.20;99.90
3005;DHT22;1512;51.486;6.610;2022-12-04T15:21:21;3.20;99.90
3005;DHT22;1512;51.486;6.610;2022-12-04T15:25:49;3.20;99.90
3005;DHT22;1512;51.486;6.610;2022-12-04T15:29:55;3.20;99.90
3005;DHT22;1512;51.486;6.610;2022-12-04T15:34:12;3.20;99.90
3005;DHT22;1512;51.486;6.610;2022-12-04T15:38:19;3.20;99.90
3005;DHT22;1512;51.486;6.610;2022-12-04T15:42:29;3.20;99.90
3005;DHT22;1512;51.486;6.610;2022-12-04T15:46:41;3.20;99.90
3005;DHT22;1512;51.486;6.610;2022-12-04T15:50:55;3.20;99.90
3005;DHT22;1512;51.486;6.610;2022-12-04T15:55:11;3.20;99.90
3005;DHT22;1512;51.486;6.610;2022-12-04T15:59:18;3.20;99.90
3005;DHT22;1512;51.486;6.610;2022-12-04T16:03:36;3.20;99.90
3005;DHT22;1512;51.486;6.610;2022-12-04T16:07:55;3.20;99.90
3005;DHT22;1512;51.486;6.610;2022-12-04T16:12:03;3.30;99.90
3005;DHT22;1512;51.486;6.610;2022-12-04T16:16:14;3.20;99.90
3005;DHT22;1512;51.486;6.610;2022-12-04T16:20:23;3.20;99.90
3005;DHT22;1512;51.486;6.610;2022-12-04T16:24:32;3.20;99.90
3005;DHT22;1512;51.486;6.610;2022-12-04T16:28:41;3.30;99.90
3005;DHT22;1512;51.486;6.610;2022-12-04T16:32:49;3.20;99.90
3005;DHT22;1512;51.486;6.610;2022-12-04T16:37:00;3.20;99.90
3005;DHT22;1512;51.486;6.610;2022-12-04T16:41:15;3.20;99.90
3005;DHT22;1512;51.486;6.610;2022-12-04T16:45:32;3.20;99.90
3005;DHT22;1512;51.486;6.610;2022-12-04T16:49:43;3.20;99.90
3005;DHT22;1512;51.486;6.610;2022-12-04T16:53:53;3.20;99.90
3005;DHT22;1512;51.486;6.610;2022-12-04T16:58:02;3.10;99.90
3005;DHT22;1512;51.486;6.610;2022-12-04T17:02:19;3.20;99.90
3005;DHT22;1512;51.486;6.610;2022-12-04T17:06:29;3.20;99.90
3005;DHT22;1512;51.486;6.610;2022-12-04T17:10:38;3.20;99.90
3005;DHT22;1512;51.486;6.610;2022-12-04T17:15:07;3.20;99.90
3005;DHT22;1512;51.486;6.610;2022-12-04T17:19:35;3.10;99.90
3005;DHT22;1512;51.486;6.610;2022-12-04T17:23:43;3.10;99.90
3005;DHT22;1512;51.486;6.610;2022-12-04T17:27:52;3.10;99.90
3005;DHT22;1512;51.486;6.610;2022-12-04T17:32:01;3.20;99.90
3005;DHT22;1512;51.486;6.610;2022-12-04T17:36:12;3.20;99.90
3005;DHT22;1512;51.486;6.610;2022-12-04T17:40:21;3.20;99.90
3005;DHT22;1512;51.486;6.610;2022-12-04T17:44:29;3.20;99.90
3005;DHT22;1512;51.486;6.610;2022-12-04T17:48:38;3.20;99.90
3005;DHT22;1512;51.486;6.610;2022-12-04T17:52:48;3.20;99.90
3005;DHT22;1512;51.486;6.610;2022-12-04T17:56:56;3.20;99.90
3005;DHT22;1512;51.486;6.610;2022-12-04T18:01:08;3.20;99.90
3005;DHT22;1512;51.486;6.610;2022-12-04T18:05:17;3.30;99.90
3005;DHT22;1512;51.486;6.610;2022-12-04T18:09:45;3.20;99.90
3005;DHT22;1512;51.486;6.610;2022-12-04T18:13:58;3.20;99.90
3005;DHT22;1512;51.486;6.610;2022-12-04T18:18:07;3.20;99.90
3005;DHT22;1512;51.486;6.610;2022-12-04T18:22:16;3.20;99.90
3005;DHT22;1512;51.486;6.610;2022-12-04T18:26:26;3.30;99.90
3005;DHT22;1512;51.486;6.610;2022-12-04T18:30:35;3.20;99.90
3005;DHT22;1512;51.486;6.610;2022-12-04T18:34:44;3.20;99.90
3005;DHT22;1512;51.486;6.610;2022-12-04T18:38:57;3.20;99.90
3005;DHT22;1512;51.486;6.610;2022-12-04T18:43:06;3.20;99.90
3005;DHT22;1512;51.486;6.610;2022-12-04T18:47:15;3.20;99.90
3005;DHT22;1512;51.486;6.610;2022-12-04T18:51:27;3.20;99.90
3005;DHT22;1512;51.486;6.610;2022-12-04T18:55:36;3.20;99.90
3005;DHT22;1512;51.486;6.610;2022-12-04T19:00:04;3.20;99.90
3005;DHT22;1512;51.486;6.610;2022-12-04T19:04:14;3.20;99.90
3005;DHT22;1512;51.486;6.610;2022-12-04T19:08:26;3.20;99.90
3005;DHT22;1512;51.486;6.610;2022-12-04T19:12:37;3.20;99.90
3005;DHT22;1512;51.486;6.610;2022-12-04T19:16:46;3.20;99.90
3005;DHT22;1512;51.486;6.610;2022-12-04T19:20:55;3.20;99.90
3005;DHT22;1512;51.486;6.610;2022-12-04T19:25:05;3.20;99.90
3005;DHT22;1512;51.486;6.610;2022-12-04T19:29:14;3.20;99.90
3005;DHT22;1512;51.486;6.610;2022-12-04T19:33:31;3.20;99.90
3005;DHT22;1512;51.486;6.610;2022-12-04T19:37:39;3.20;99.90
3005;DHT22;1512;51.486;6.610;2022-12-04T19:41:49;3.20;99.90
3005;DHT22;1512;51.486;6.610;2022-12-04T19:45:59;3.20;99.90
3005;DHT22;1512;51.486;6.610;2022-12-04T19:50:08;3.10;99.90
3005;DHT22;1512;51.486;6.610;2022-12-04T19:54:18;3.10;99.90
3005;DHT22;1512;51.486;6.610;2022-12-04T19:58:47;3.10;99.90
3005;DHT22;1512;51.486;6.610;2022-12-04T20:02:56;3.10;99.90
3005;DHT22;1512;51.486;6.610;2022-12-04T20:07:05;3.10;99.90
3005;DHT22;1512;51.486;6.610;2022-12-04T20:11:16;3.10;99.90
3005;DHT22;1512;51.486;6.610;2022-12-04T20:15:25;3.20;99.90
3005;DHT22;1512;51.486;6.610;2022-12-04T20:19:33;3.20;99.90
3005;DHT22;1512;51.486;6.610;2022-12-04T20:23:47;3.10;99.90
3005;DHT22;1512;51.486;6.610;2022-12-04T20:27:56;3.10;99.90
3005;DHT22;1512;51.486;6.610;2022-12-04T20:32:05;3.10;99.90
3005;DHT22;1512;51.486;6.610;2022-12-04T20:36:15;3.20;99.90
3005;DHT22;1512;51.486;6.610;2022-12-04T20:40:25;3.20;99.90
3005;DHT22;1512;51.486;6.610;2022-12-04T20:44:34;3.10;99.90
3005;DHT22;1512;51.486;6.610;2022-12-04T20:48:43;3.20;99.90
3005;DHT22;1512;51.486;6.610;2022-12-04T20:52:53;3.20;99.90
3005;DHT22;1512;51.486;6.610;2022-12-04T20:57:02;3.20;99.90
3005;DHT22;1512;51.486;6.610;2022-12-04T21:01:16;3.10;99.90
3005;DHT22;1512;51.486;6.610;2022-12-04T21:05:48;3.20;99.90
3005;DHT22;1512;51.486;6.610;2022-12-04T21:09:57;3.20;99.90
3005;DHT22;1512;51.486;6.610;2022-12-04T21:14:12;3.20;99.90
3005;DHT22;1512;51.486;6.610;2022-12-04T21:18:39;3.20;99.90
3005;DHT22;1512;51.486;6.610;2022-12-04T21:22:48;3.20;99.90
3005;DHT22;1512;51.486;6.610;2022-12-04T21:26:57;3.20;99.90
3005;DHT22;1512;51.486;6.610;2022-12-04T21:31:06;3.20;99.90
3005;DHT22;1512;51.486;6.610;2022-12-04T21:35:34;3.20;99.90
3005;DHT22;1512;51.486;6.610;2022-12-04T21:39:44;3.30;99.90
3005;DHT22;1512;51.486;6.610;2022-12-04T21:43:53;3.30;99.90
3005;DHT22;1512;51.486;6.610;2022-12-04T21:48:01;3.20;99.90
3005;DHT22;1512;51.486;6.610;2022-12-04T21:52:10;3.20;99.90
3005;DHT22;1512;51.486;6.610;2022-12-04T21:56:19;3.30;99.90
3005;DHT22;1512;51.486;6.610;2022-12-04T22:00:29;3.20;99.90
3005;DHT22;1512;51.486;6.610;2022-12-04T22:04:37;3.20;99.90
3005;DHT22;1512;51.486;6.610;2022-12-04T22:08:47;3.30;99.90
3005;DHT22;1512;51.486;6.610;2022-12-04T22:13:15;3.20;99.90
3005;DHT22;1512;51.486;6.610;2022-12-04T22:17:27;3.30;99.90
3005;DHT22;1512;51.486;6.610;2022-12-04T22:21:33;3.20;99.90
3005;DHT22;1512;51.486;6.610;2022-12-04T22:25:42;3.30;99.90
3005;DHT22;1512;51.486;6.610;2022-12-04T22:29:51;3.20;99.90
3005;DHT22;1512;51.486;6.610;2022-12-04T22:34:19;3.30;99.90
3005;DHT22;1512;51.486;6.610;2022-12-04T22:38:27;3.30;99.90
3005;DHT22;1512;51.486;6.610;2022-12-04T22:42:36;3.30;99.90
3005;DHT22;1512;51.486;6.610;2022-12-04T22:46:45;3.30;99.90
3005;DHT22;1512;51.486;6.610;2022-12-04T22:51:01;3.30;99.90
3005;DHT22;1512;51.486;6.610;2022-12-04T22:55:10;3.30;99.90
3005;DHT22;1512;51.486;6.610;2022-12-04T22:59:19;3.30;99.90
3005;DHT22;1512;51.486;6.610;2022-12-04T23:03:28;3.20;99.90
3005;DHT22;1512;51.486;6.610;2022-12-04T23:07:36;3.20;99.90
3005;DHT22;1512;51.486;6.610;2022-12-04T23:11:50;3.20;99.90
3005;DHT22;1512;51.486;6.610;2022-12-04T23:15:59;3.20;99.90
3005;DHT22;1512;51.486;6.610;2022-12-04T23:20:10;3.20;99.90
3005;DHT22;1512;51.486;6.610;2022-12-04T23:24:18;3.20;99.90
3005;DHT22;1512;51.486;6.610;2022-12-04T23:28:27;3.20;99.90
3005;DHT22;1512;51.486;6.610;2022-12-04T23:32:36;3.30;99.90
3005;DHT22;1512;51.486;6.610;2022-12-04T23:37:04;3.30;99.90
3005;DHT22;1512;51.486;6.610;2022-12-04T23:41:15;3.30;99.90
3005;DHT22;1512;51.486;6.610;2022-12-04T23:45:24;3.30;99.90
3005;DHT22;1512;51.486;6.610;2022-12-04T23:49:33;3.30;99.90
3005;DHT22;1512;51.486;6.610;2022-12-04T23:53:42;3.30;99.90
3005;DHT22;1512;51.486;6.610;2022-12-04T23:57:51;3.30;99.90
